Main page
METAR-TAF:

METAR-TAF

Airports :

Guaymas International Airport

Guaymas, Mexico

latitude: 27-58N, longitude: 110-56W, elevation: 27 m

Current weather observation

The report was made 22 minutes ago, at 13:55 UTC
Calm wind
Temperature 19°C
Humidity 52%
Pressure 1014 hPa
Visibility: 16.1 km
Scattered clouds at a height of 17000 ft

METAR: MMGM 221355Z 00000KT 10SM SCT170 19/09 A2994 RMK 8/070 RTS

Time: 07:17 (14:17 UTC)

Forecast

The report was made 9 hours and 54 minutes ago, at 04:23 UTC
Forecast valid from 22 at 06 UTC to 23 at 06 UTC
Wind 5 kt from the West/Northwest
Visibility: 10 km
Scattered clouds at a height of 12000 ft
From 22 at 1800 UTC
Wind 14 kt from the West/Southwest
Visibility: 10 km
Broken clouds at a height of 14000 ft
Overcast at a height of 25000 ft
From 23 at 0500 UTC
Wind 5 kt from the West
Visibility: 10 km
Scattered clouds at a height of 25000 ft

TAF: MMGM 220423Z 2206/2306 30005KT P6SM SCT120 FM221800 24014KT P6SM BKN140 OVC250 FM230500 26005KT P6SM SCT250

Weather observations and forecasts of more than 4000 airports (METAR and TAF reports).

The available stations are represented by yellow and red dots on the map.

Hover mouse over dot to see the name of the station.

Then click to see weather observations and forecasts.

To change the map : click on the green buttons with a black cross to zoom in, on the green button with a dash to zoom out, or on the green arrows for adjacent maps.


METAR-TAF: